sensor_id;sensor_type;location;lat;lon;timestamp;temperature;humidity
41457;DHT22;27197;51.752;5.220;2022-08-19T00:00:51;26.80;60.90
41457;DHT22;27197;51.752;5.220;2022-08-19T00:03:22;26.80;60.90
41457;DHT22;27197;51.752;5.220;2022-08-19T00:05:52;26.80;60.90
41457;DHT22;27197;51.752;5.220;2022-08-19T00:08:25;26.80;60.90
41457;DHT22;27197;51.752;5.220;2022-08-19T00:10:54;26.80;60.90
41457;DHT22;27197;51.752;5.220;2022-08-19T00:13:24;26.80;60.90
41457;DHT22;27197;51.752;5.220;2022-08-19T00:15:57;26.80;60.90
41457;DHT22;27197;51.752;5.220;2022-08-19T00:18:26;26.80;60.90
41457;DHT22;27197;51.752;5.220;2022-08-19T00:20:57;26.80;61.00
41457;DHT22;27197;51.752;5.220;2022-08-19T00:23:31;26.80;60.90
41457;DHT22;27197;51.752;5.220;2022-08-19T00:26:05;26.70;60.90
41457;DHT22;27197;51.752;5.220;2022-08-19T00:28:34;26.80;61.00
41457;DHT22;27197;51.752;5.220;2022-08-19T00:31:07;26.80;61.00
41457;DHT22;27197;51.752;5.220;2022-08-19T00:33:39;26.80;61.00
41457;DHT22;27197;51.752;5.220;2022-08-19T00:36:09;26.80;60.90
41457;DHT22;27197;51.752;5.220;2022-08-19T00:38:41;26.70;60.80
41457;DHT22;27197;51.752;5.220;2022-08-19T00:41:13;26.80;60.90
41457;DHT22;27197;51.752;5.220;2022-08-19T00:43:56;26.70;60.80
41457;DHT22;27197;51.752;5.220;2022-08-19T00:46:15;26.70;60.90
41457;DHT22;27197;51.752;5.220;2022-08-19T00:48:45;26.70;60.90
41457;DHT22;27197;51.752;5.220;2022-08-19T00:51:14;26.70;61.60
41457;DHT22;27197;51.752;5.220;2022-08-19T00:53:48;26.70;60.80
41457;DHT22;27197;51.752;5.220;2022-08-19T00:56:20;26.70;60.80
41457;DHT22;27197;51.752;5.220;2022-08-19T00:58:51;26.70;60.60
41457;DHT22;27197;51.752;5.220;2022-08-19T01:01:22;26.70;60.80
41457;DHT22;27197;51.752;5.220;2022-08-19T01:03:57;26.70;60.90
41457;DHT22;27197;51.752;5.220;2022-08-19T01:06:30;26.70;60.90
41457;DHT22;27197;51.752;5.220;2022-08-19T01:09:03;26.70;60.90
41457;DHT22;27197;51.752;5.220;2022-08-19T01:11:35;26.70;60.90
41457;DHT22;27197;51.752;5.220;2022-08-19T01:14:09;26.70;60.90
41457;DHT22;27197;51.752;5.220;2022-08-19T01:16:42;26.70;60.90
41457;DHT22;27197;51.752;5.220;2022-08-19T01:19:18;26.70;60.90
41457;DHT22;27197;51.752;5.220;2022-08-19T01:22:00;26.70;60.90
41457;DHT22;27197;51.752;5.220;2022-08-19T01:24:27;26.70;60.90
41457;DHT22;27197;51.752;5.220;2022-08-19T01:27:07;26.70;60.90
41457;DHT22;27197;51.752;5.220;2022-08-19T01:29:39;26.70;59.50
41457;DHT22;27197;51.752;5.220;2022-08-19T01:32:10;26.60;60.70
41457;DHT22;27197;51.752;5.220;2022-08-19T01:34:44;26.60;60.90
41457;DHT22;27197;51.752;5.220;2022-08-19T01:37:16;26.60;61.00
41457;DHT22;27197;51.752;5.220;2022-08-19T01:39:50;26.70;60.90
41457;DHT22;27197;51.752;5.220;2022-08-19T01:42:19;26.60;60.80
41457;DHT22;27197;51.752;5.220;2022-08-19T01:44:49;26.60;60.80
41457;DHT22;27197;51.752;5.220;2022-08-19T01:47:19;26.70;60.90
41457;DHT22;27197;51.752;5.220;2022-08-19T01:49:49;26.70;60.60
41457;DHT22;27197;51.752;5.220;2022-08-19T01:52:18;26.70;60.10
41457;DHT22;27197;51.752;5.220;2022-08-19T01:54:49;26.60;60.70
41457;DHT22;27197;51.752;5.220;2022-08-19T01:57:20;26.60;60.80
41457;DHT22;27197;51.752;5.220;2022-08-19T01:59:53;26.60;59.30
41457;DHT22;27197;51.752;5.220;2022-08-19T02:02:23;26.60;60.70
41457;DHT22;27197;51.752;5.220;2022-08-19T02:04:52;26.60;60.80
41457;DHT22;27197;51.752;5.220;2022-08-19T02:07:26;26.60;60.80
41457;DHT22;27197;51.752;5.220;2022-08-19T02:09:54;26.60;60.80
41457;DHT22;27197;51.752;5.220;2022-08-19T02:12:24;26.60;60.90
41457;DHT22;27197;51.752;5.220;2022-08-19T02:14:54;26.60;60.90
41457;DHT22;27197;51.752;5.220;2022-08-19T02:17:24;26.60;60.60
41457;DHT22;27197;51.752;5.220;2022-08-19T02:19:58;26.60;60.80
41457;DHT22;27197;51.752;5.220;2022-08-19T02:22:29;26.60;60.90
41457;DHT22;27197;51.752;5.220;2022-08-19T02:24:59;26.60;60.90
41457;DHT22;27197;51.752;5.220;2022-08-19T02:27:30;26.60;60.90
41457;DHT22;27197;51.752;5.220;2022-08-19T02:30:04;26.60;60.90
41457;DHT22;27197;51.752;5.220;2022-08-19T02:32:33;26.60;60.90
41457;DHT22;27197;51.752;5.220;2022-08-19T02:35:05;26.60;60.90
41457;DHT22;27197;51.752;5.220;2022-08-19T02:37:35;26.60;60.90
41457;DHT22;27197;51.752;5.220;2022-08-19T02:40:22;26.60;60.90
41457;DHT22;27197;51.752;5.220;2022-08-19T02:42:54;26.60;60.80
41457;DHT22;27197;51.752;5.220;2022-08-19T02:45:26;26.60;60.90
41457;DHT22;27197;51.752;5.220;2022-08-19T02:47:57;26.60;60.90
41457;DHT22;27197;51.752;5.220;2022-08-19T02:50:27;26.60;60.90
41457;DHT22;27197;51.752;5.220;2022-08-19T02:52:56;26.60;60.90
41457;DHT22;27197;51.752;5.220;2022-08-19T02:55:29;26.60;60.90
41457;DHT22;27197;51.752;5.220;2022-08-19T02:58:00;26.60;60.90
41457;DHT22;27197;51.752;5.220;2022-08-19T03:00:36;26.60;60.90
41457;DHT22;27197;51.752;5.220;2022-08-19T03:03:06;26.60;60.90
41457;DHT22;27197;51.752;5.220;2022-08-19T03:05:38;26.60;60.90
41457;DHT22;27197;51.752;5.220;2022-08-19T03:08:06;26.50;60.80
41457;DHT22;27197;51.752;5.220;2022-08-19T03:10:44;26.60;60.90
41457;DHT22;27197;51.752;5.220;2022-08-19T03:13:16;26.60;60.80
41457;DHT22;27197;51.752;5.220;2022-08-19T03:15:47;26.60;60.80
41457;DHT22;27197;51.752;5.220;2022-08-19T03:18:19;26.60;60.80
41457;DHT22;27197;51.752;5.220;2022-08-19T03:20:52;26.50;60.20
41457;DHT22;27197;51.752;5.220;2022-08-19T03:23:27;26.50;60.80
41457;DHT22;27197;51.752;5.220;2022-08-19T03:26:02;26.50;60.70
41457;DHT22;27197;51.752;5.220;2022-08-19T03:28:27;26.50;60.80
41457;DHT22;27197;51.752;5.220;2022-08-19T03:31:03;26.50;60.00
41457;DHT22;27197;51.752;5.220;2022-08-19T03:33:35;26.50;58.80
41457;DHT22;27197;51.752;5.220;2022-08-19T03:36:22;26.40;60.00
41457;DHT22;27197;51.752;5.220;2022-08-19T03:38:54;26.30;60.20
41457;DHT22;27197;51.752;5.220;2022-08-19T03:41:31;26.30;61.10
41457;DHT22;27197;51.752;5.220;2022-08-19T03:44:03;26.30;60.80
41457;DHT22;27197;51.752;5.220;2022-08-19T03:46:34;26.20;58.60
41457;DHT22;27197;51.752;5.220;2022-08-19T03:49:06;26.30;60.70
41457;DHT22;27197;51.752;5.220;2022-08-19T03:51:39;26.30;61.10
41457;DHT22;27197;51.752;5.220;2022-08-19T03:54:11;26.40;61.10
41457;DHT22;27197;51.752;5.220;2022-08-19T03:56:44;26.40;60.90
41457;DHT22;27197;51.752;5.220;2022-08-19T03:59:16;26.40;60.80
41457;DHT22;27197;51.752;5.220;2022-08-19T04:01:46;26.40;60.80
41457;DHT22;27197;51.752;5.220;2022-08-19T04:04:18;26.40;60.80
41457;DHT22;27197;51.752;5.220;2022-08-19T04:06:48;26.40;58.50
41457;DHT22;27197;51.752;5.220;2022-08-19T04:09:19;26.40;60.40
41457;DHT22;27197;51.752;5.220;2022-08-19T04:11:55;26.30;58.60
41457;DHT22;27197;51.752;5.220;2022-08-19T04:14:27;26.30;59.30
41457;DHT22;27197;51.752;5.220;2022-08-19T04:17:04;26.20;61.00
41457;DHT22;27197;51.752;5.220;2022-08-19T04:19:32;26.20;59.40
41457;DHT22;27197;51.752;5.220;2022-08-19T04:22:04;26.20;61.00
41457;DHT22;27197;51.752;5.220;2022-08-19T04:24:38;26.20;59.60
41457;DHT22;27197;51.752;5.220;2022-08-19T04:27:07;26.10;60.10
41457;DHT22;27197;51.752;5.220;2022-08-19T04:29:37;26.20;61.20
41457;DHT22;27197;51.752;5.220;2022-08-19T04:32:10;26.20;61.70
41457;DHT22;27197;51.752;5.220;2022-08-19T04:34:39;26.20;59.20
41457;DHT22;27197;51.752;5.220;2022-08-19T04:37:12;26.20;61.20
41457;DHT22;27197;51.752;5.220;2022-08-19T04:39:43;26.20;60.00
41457;DHT22;27197;51.752;5.220;2022-08-19T04:42:29;26.00;59.90
41457;DHT22;27197;51.752;5.220;2022-08-19T04:45:10;26.00;61.20
41457;DHT22;27197;51.752;5.220;2022-08-19T04:47:45;26.10;60.70
41457;DHT22;27197;51.752;5.220;2022-08-19T04:50:17;26.00;60.60
41457;DHT22;27197;51.752;5.220;2022-08-19T04:52:49;26.00;61.30
41457;DHT22;27197;51.752;5.220;2022-08-19T04:55:23;26.00;58.70
41457;DHT22;27197;51.752;5.220;2022-08-19T04:57:52;25.80;61.10
41457;DHT22;27197;51.752;5.220;2022-08-19T05:00:24;25.90;60.70
41457;DHT22;27197;51.752;5.220;2022-08-19T05:02:57;25.90;59.40
41457;DHT22;27197;51.752;5.220;2022-08-19T05:05:26;26.00;61.70
41457;DHT22;27197;51.752;5.220;2022-08-19T05:07:58;26.00;61.00
41457;DHT22;27197;51.752;5.220;2022-08-19T05:10:29;26.10;58.80
41457;DHT22;27197;51.752;5.220;2022-08-19T05:13:02;26.00;59.80
41457;DHT22;27197;51.752;5.220;2022-08-19T05:15:33;25.90;60.80
41457;DHT22;27197;51.752;5.220;2022-08-19T05:18:02;25.90;59.90
41457;DHT22;27197;51.752;5.220;2022-08-19T05:20:48;26.00;61.60
41457;DHT22;27197;51.752;5.220;2022-08-19T05:23:38;26.00;60.60
41457;DHT22;27197;51.752;5.220;2022-08-19T05:26:07;25.90;60.90
41457;DHT22;27197;51.752;5.220;2022-08-19T05:28:37;25.90;61.10
41457;DHT22;27197;51.752;5.220;2022-08-19T05:31:09;26.00;61.40
41457;DHT22;27197;51.752;5.220;2022-08-19T05:33:43;26.00;60.70
41457;DHT22;27197;51.752;5.220;2022-08-19T05:36:13;26.10;59.50
41457;DHT22;27197;51.752;5.220;2022-08-19T05:38:43;25.90;60.80
41457;DHT22;27197;51.752;5.220;2022-08-19T05:41:18;26.00;60.50
41457;DHT22;27197;51.752;5.220;2022-08-19T05:43:51;25.90;60.10
41457;DHT22;27197;51.752;5.220;2022-08-19T05:46:23;26.00;60.50
41457;DHT22;27197;51.752;5.220;2022-08-19T05:48:52;25.90;60.70
41457;DHT22;27197;51.752;5.220;2022-08-19T05:51:24;25.80;58.70
41457;DHT22;27197;51.752;5.220;2022-08-19T05:53:57;25.60;61.70
41457;DHT22;27197;51.752;5.220;2022-08-19T05:56:29;25.70;61.70
41457;DHT22;27197;51.752;5.220;2022-08-19T05:59:00;25.70;61.90
41457;DHT22;27197;51.752;5.220;2022-08-19T06:01:33;25.80;59.50
41457;DHT22;27197;51.752;5.220;2022-08-19T06:04:06;25.50;61.20
41457;DHT22;27197;51.752;5.220;2022-08-19T06:06:39;25.60;61.90
41457;DHT22;27197;51.752;5.220;2022-08-19T06:09:10;25.60;61.40
41457;DHT22;27197;51.752;5.220;2022-08-19T06:11:46;25.50;60.50
41457;DHT22;27197;51.752;5.220;2022-08-19T06:14:19;25.20;61.80
41457;DHT22;27197;51.752;5.220;2022-08-19T06:16:51;24.90;62.60
41457;DHT22;27197;51.752;5.220;2022-08-19T06:19:22;24.80;64.20
41457;DHT22;27197;51.752;5.220;2022-08-19T06:21:52;24.80;64.00
41457;DHT22;27197;51.752;5.220;2022-08-19T06:24:26;24.90;63.20
41457;DHT22;27197;51.752;5.220;2022-08-19T06:26:59;24.90;63.90
41457;DHT22;27197;51.752;5.220;2022-08-19T06:29:31;24.90;62.30
41457;DHT22;27197;51.752;5.220;2022-08-19T06:32:03;25.10;64.00
41457;DHT22;27197;51.752;5.220;2022-08-19T06:34:34;25.00;62.80
41457;DHT22;27197;51.752;5.220;2022-08-19T06:37:09;24.90;63.10
41457;DHT22;27197;51.752;5.220;2022-08-19T06:39:41;24.80;64.10
41457;DHT22;27197;51.752;5.220;2022-08-19T06:42:13;24.60;63.60
41457;DHT22;27197;51.752;5.220;2022-08-19T06:44:47;24.60;65.30
41457;DHT22;27197;51.752;5.220;2022-08-19T06:47:18;24.90;64.60
41457;DHT22;27197;51.752;5.220;2022-08-19T06:49:52;24.90;63.50
41457;DHT22;27197;51.752;5.220;2022-08-19T06:52:22;24.80;64.70
41457;DHT22;27197;51.752;5.220;2022-08-19T06:54:52;24.90;64.40
41457;DHT22;27197;51.752;5.220;2022-08-19T06:57:24;25.00;63.90
41457;DHT22;27197;51.752;5.220;2022-08-19T06:59:54;24.70;64.10
41457;DHT22;27197;51.752;5.220;2022-08-19T07:02:24;24.80;64.70
41457;DHT22;27197;51.752;5.220;2022-08-19T07:04:58;25.00;63.80
41457;DHT22;27197;51.752;5.220;2022-08-19T07:07:26;24.90;63.80
41457;DHT22;27197;51.752;5.220;2022-08-19T07:09:57;25.00;63.60
41457;DHT22;27197;51.752;5.220;2022-08-19T07:12:30;24.80;64.70
41457;DHT22;27197;51.752;5.220;2022-08-19T07:15:00;24.60;65.20
41457;DHT22;27197;51.752;5.220;2022-08-19T07:17:29;24.80;65.10
41457;DHT22;27197;51.752;5.220;2022-08-19T07:20:02;25.00;64.60
41457;DHT22;27197;51.752;5.220;2022-08-19T07:22:34;25.20;63.80
41457;DHT22;27197;51.752;5.220;2022-08-19T07:25:09;24.90;64.40
41457;DHT22;27197;51.752;5.220;2022-08-19T07:27:39;25.10;64.40
41457;DHT22;27197;51.752;5.220;2022-08-19T07:30:13;25.20;63.70
41457;DHT22;27197;51.752;5.220;2022-08-19T07:32:42;25.30;63.50
41457;DHT22;27197;51.752;5.220;2022-08-19T07:35:17;25.30;63.00
41457;DHT22;27197;51.752;5.220;2022-08-19T07:37:49;25.10;63.20
41457;DHT22;27197;51.752;5.220;2022-08-19T07:40:18;25.10;64.40
41457;DHT22;27197;51.752;5.220;2022-08-19T07:42:48;25.10;63.80
41457;DHT22;27197;51.752;5.220;2022-08-19T07:45:21;25.10;64.00
41457;DHT22;27197;51.752;5.220;2022-08-19T07:47:54;25.20;63.90
41457;DHT22;27197;51.752;5.220;2022-08-19T07:50:26;25.10;64.30
41457;DHT22;27197;51.752;5.220;2022-08-19T07:52:54;24.90;64.70
41457;DHT22;27197;51.752;5.220;2022-08-19T07:55:27;24.80;65.30
41457;DHT22;27197;51.752;5.220;2022-08-19T07:57:59;24.70;65.80
41457;DHT22;27197;51.752;5.220;2022-08-19T08:00:29;24.70;66.20
41457;DHT22;27197;51.752;5.220;2022-08-19T08:03:02;24.60;66.70
41457;DHT22;27197;51.752;5.220;2022-08-19T08:05:32;24.70;66.50
41457;DHT22;27197;51.752;5.220;2022-08-19T08:08:20;24.30;66.90
41457;DHT22;27197;51.752;5.220;2022-08-19T08:13:45;24.40;67.10
41457;DHT22;27197;51.752;5.220;2022-08-19T08:16:19;24.70;65.90
41457;DHT22;27197;51.752;5.220;2022-08-19T08:18:49;24.80;66.00
41457;DHT22;27197;51.752;5.220;2022-08-19T08:21:19;24.70;66.50
41457;DHT22;27197;51.752;5.220;2022-08-19T08:23:51;24.50;66.70
41457;DHT22;27197;51.752;5.220;2022-08-19T08:26:21;24.50;67.20
41457;DHT22;27197;51.752;5.220;2022-08-19T08:28:50;24.50;67.00
41457;DHT22;27197;51.752;5.220;2022-08-19T08:31:21;24.40;67.20
41457;DHT22;27197;51.752;5.220;2022-08-19T08:33:53;24.50;67.20
41457;DHT22;27197;51.752;5.220;2022-08-19T08:36:25;24.80;66.20
41457;DHT22;27197;51.752;5.220;2022-08-19T08:38:57;24.80;66.30
41457;DHT22;27197;51.752;5.220;2022-08-19T08:42:01;24.60;67.10
41457;DHT22;27197;51.752;5.220;2022-08-19T08:44:43;24.60;67.40
41457;DHT22;27197;51.752;5.220;2022-08-19T08:47:14;24.90;65.80
41457;DHT22;27197;51.752;5.220;2022-08-19T08:49:52;25.10;65.50
41457;DHT22;27197;51.752;5.220;2022-08-19T08:52:26;25.20;64.40
41457;DHT22;27197;51.752;5.220;2022-08-19T08:54:55;25.20;65.00
41457;DHT22;27197;51.752;5.220;2022-08-19T08:57:38;25.10;65.20
41457;DHT22;27197;51.752;5.220;2022-08-19T09:00:14;25.10;65.10
41457;DHT22;27197;51.752;5.220;2022-08-19T09:02:43;24.90;65.40
41457;DHT22;27197;51.752;5.220;2022-08-19T09:05:16;24.80;66.20
41457;DHT22;27197;51.752;5.220;2022-08-19T09:08:07;24.60;66.60
41457;DHT22;27197;51.752;5.220;2022-08-19T09:10:40;24.70;67.40
41457;DHT22;27197;51.752;5.220;2022-08-19T09:13:34;24.50;67.30
41457;DHT22;27197;51.752;5.220;2022-08-19T09:16:12;24.50;67.80
41457;DHT22;27197;51.752;5.220;2022-08-19T09:18:49;24.60;67.40
41457;DHT22;27197;51.752;5.220;2022-08-19T09:21:17;24.70;66.80
41457;DHT22;27197;51.752;5.220;2022-08-19T09:23:52;24.90;66.40
41457;DHT22;27197;51.752;5.220;2022-08-19T09:26:23;24.70;66.90
41457;DHT22;27197;51.752;5.220;2022-08-19T09:28:53;24.70;66.60
41457;DHT22;27197;51.752;5.220;2022-08-19T09:31:27;24.90;66.70
41457;DHT22;27197;51.752;5.220;2022-08-19T09:33:59;24.80;67.30
41457;DHT22;27197;51.752;5.220;2022-08-19T09:36:30;24.70;67.90
41457;DHT22;27197;51.752;5.220;2022-08-19T09:39:09;24.70;66.70
41457;DHT22;27197;51.752;5.220;2022-08-19T09:41:38;24.70;68.00
41457;DHT22;27197;51.752;5.220;2022-08-19T09:44:08;24.60;68.00
41457;DHT22;27197;51.752;5.220;2022-08-19T09:46:42;24.60;68.30
41457;DHT22;27197;51.752;5.220;2022-08-19T09:49:12;24.60;68.60
41457;DHT22;27197;51.752;5.220;2022-08-19T09:51:40;24.50;68.70
41457;DHT22;27197;51.752;5.220;2022-08-19T09:54:10;24.60;68.30
41457;DHT22;27197;51.752;5.220;2022-08-19T09:56:42;24.60;69.00
41457;DHT22;27197;51.752;5.220;2022-08-19T09:59:11;24.50;69.20
41457;DHT22;27197;51.752;5.220;2022-08-19T10:01:43;24.60;68.30
41457;DHT22;27197;51.752;5.220;2022-08-19T10:04:15;24.60;68.70
41457;DHT22;27197;51.752;5.220;2022-08-19T10:06:47;24.50;69.60
41457;DHT22;27197;51.752;5.220;2022-08-19T10:09:22;24.60;67.90
41457;DHT22;27197;51.752;5.220;2022-08-19T10:12:10;24.70;68.50
41457;DHT22;27197;51.752;5.220;2022-08-19T10:14:45;24.70;68.90
41457;DHT22;27197;51.752;5.220;2022-08-19T10:17:14;24.70;68.50
41457;DHT22;27197;51.752;5.220;2022-08-19T10:20:03;24.70;67.50
41457;DHT22;27197;51.752;5.220;2022-08-19T10:22:33;24.70;69.30
41457;DHT22;27197;51.752;5.220;2022-08-19T10:25:05;24.50;68.60
41457;DHT22;27197;51.752;5.220;2022-08-19T10:27:36;24.50;69.60
41457;DHT22;27197;51.752;5.220;2022-08-19T10:30:06;24.60;70.30
41457;DHT22;27197;51.752;5.220;2022-08-19T10:32:35;24.60;69.20
41457;DHT22;27197;51.752;5.220;2022-08-19T10:35:11;24.60;69.90
41457;DHT22;27197;51.752;5.220;2022-08-19T10:37:44;24.70;69.20
41457;DHT22;27197;51.752;5.220;2022-08-19T10:40:15;24.80;69.50
41457;DHT22;27197;51.752;5.220;2022-08-19T10:42:46;24.90;67.00
41457;DHT22;27197;51.752;5.220;2022-08-19T10:45:19;24.90;69.00
41457;DHT22;27197;51.752;5.220;2022-08-19T10:47:51;24.90;70.10
41457;DHT22;27197;51.752;5.220;2022-08-19T10:50:23;25.00;69.60
41457;DHT22;27197;51.752;5.220;2022-08-19T10:53:08;25.00;68.00
41457;DHT22;27197;51.752;5.220;2022-08-19T10:55:41;25.00;69.00
41457;DHT22;27197;51.752;5.220;2022-08-19T10:58:29;25.10;68.40
41457;DHT22;27197;51.752;5.220;2022-08-19T11:01:02;25.10;68.80
41457;DHT22;27197;51.752;5.220;2022-08-19T11:03:37;25.10;68.20
41457;DHT22;27197;51.752;5.220;2022-08-19T11:06:07;25.20;69.10
41457;DHT22;27197;51.752;5.220;2022-08-19T11:08:42;25.20;69.40
41457;DHT22;27197;51.752;5.220;2022-08-19T11:11:16;25.20;68.60
41457;DHT22;27197;51.752;5.220;2022-08-19T11:13:47;25.40;68.90
41457;DHT22;27197;51.752;5.220;2022-08-19T11:16:19;25.40;68.20
41457;DHT22;27197;51.752;5.220;2022-08-19T11:18:52;25.50;66.50
41457;DHT22;27197;51.752;5.220;2022-08-19T11:21:31;25.60;67.40
41457;DHT22;27197;51.752;5.220;2022-08-19T11:24:03;25.50;67.80
41457;DHT22;27197;51.752;5.220;2022-08-19T11:26:37;25.70;67.50
41457;DHT22;27197;51.752;5.220;2022-08-19T11:29:09;25.80;67.10
41457;DHT22;27197;51.752;5.220;2022-08-19T11:31:45;25.80;66.90
41457;DHT22;27197;51.752;5.220;2022-08-19T11:34:22;25.90;64.80
41457;DHT22;27197;51.752;5.220;2022-08-19T11:36:54;26.00;65.50
41457;DHT22;27197;51.752;5.220;2022-08-19T11:39:25;26.00;64.90
41457;DHT22;27197;51.752;5.220;2022-08-19T11:41:59;26.10;64.80
41457;DHT22;27197;51.752;5.220;2022-08-19T11:44:31;26.10;63.30
41457;DHT22;27197;51.752;5.220;2022-08-19T11:47:00;26.10;65.00
41457;DHT22;27197;51.752;5.220;2022-08-19T11:52:23;26.10;64.80
41457;DHT22;27197;51.752;5.220;2022-08-19T11:54:54;26.10;64.00
41457;DHT22;27197;51.752;5.220;2022-08-19T11:57:23;26.10;64.30
41457;DHT22;27197;51.752;5.220;2022-08-19T11:59:56;26.10;63.10
41457;DHT22;27197;51.752;5.220;2022-08-19T12:02:29;26.10;64.60
41457;DHT22;27197;51.752;5.220;2022-08-19T12:05:00;26.20;63.30
41457;DHT22;27197;51.752;5.220;2022-08-19T12:07:35;26.20;65.00
41457;DHT22;27197;51.752;5.220;2022-08-19T12:10:05;26.20;64.50
41457;DHT22;27197;51.752;5.220;2022-08-19T12:12:37;26.20;62.70
41457;DHT22;27197;51.752;5.220;2022-08-19T12:15:11;26.20;63.20
41457;DHT22;27197;51.752;5.220;2022-08-19T12:17:44;26.10;64.40
41457;DHT22;27197;51.752;5.220;2022-08-19T12:20:14;26.10;63.80
41457;DHT22;27197;51.752;5.220;2022-08-19T12:22:44;26.10;63.00
41457;DHT22;27197;51.752;5.220;2022-08-19T12:25:16;26.10;63.50
41457;DHT22;27197;51.752;5.220;2022-08-19T12:27:47;26.10;64.10
41457;DHT22;27197;51.752;5.220;2022-08-19T12:30:17;26.10;66.80
41457;DHT22;27197;51.752;5.220;2022-08-19T12:32:48;26.10;65.50
41457;DHT22;27197;51.752;5.220;2022-08-19T12:35:20;26.10;63.30
41457;DHT22;27197;51.752;5.220;2022-08-19T12:37:55;26.10;65.30
41457;DHT22;27197;51.752;5.220;2022-08-19T12:40:28;26.10;67.00
41457;DHT22;27197;51.752;5.220;2022-08-19T12:42:57;26.10;66.40
41457;DHT22;27197;51.752;5.220;2022-08-19T12:45:29;26.10;66.50
41457;DHT22;27197;51.752;5.220;2022-08-19T12:47:58;26.10;65.30
41457;DHT22;27197;51.752;5.220;2022-08-19T12:50:28;26.10;66.20
41457;DHT22;27197;51.752;5.220;2022-08-19T12:53:00;26.00;65.20
41457;DHT22;27197;51.752;5.220;2022-08-19T12:55:32;26.00;65.40
41457;DHT22;27197;51.752;5.220;2022-08-19T12:58:02;26.00;66.70
41457;DHT22;27197;51.752;5.220;2022-08-19T13:00:34;26.00;64.80
41457;DHT22;27197;51.752;5.220;2022-08-19T13:03:08;26.00;67.90
41457;DHT22;27197;51.752;5.220;2022-08-19T13:05:38;26.00;68.20
41457;DHT22;27197;51.752;5.220;2022-08-19T13:08:11;26.00;67.70
41457;DHT22;27197;51.752;5.220;2022-08-19T13:10:41;26.00;68.80
41457;DHT22;27197;51.752;5.220;2022-08-19T13:13:11;26.00;67.70
41457;DHT22;27197;51.752;5.220;2022-08-19T13:15:42;26.00;66.70
41457;DHT22;27197;51.752;5.220;2022-08-19T13:18:13;26.00;68.30
41457;DHT22;27197;51.752;5.220;2022-08-19T13:20:43;26.00;65.90
41457;DHT22;27197;51.752;5.220;2022-08-19T13:23:14;26.00;68.20
41457;DHT22;27197;51.752;5.220;2022-08-19T13:25:44;26.00;68.60
41457;DHT22;27197;51.752;5.220;2022-08-19T13:28:16;26.00;68.30
41457;DHT22;27197;51.752;5.220;2022-08-19T13:31:07;26.00;68.00
41457;DHT22;27197;51.752;5.220;2022-08-19T13:33:54;26.00;65.90
41457;DHT22;27197;51.752;5.220;2022-08-19T13:36:27;26.00;68.30
41457;DHT22;27197;51.752;5.220;2022-08-19T13:38:58;26.00;68.60
41457;DHT22;27197;51.752;5.220;2022-08-19T13:41:31;26.10;66.60
41457;DHT22;27197;51.752;5.220;2022-08-19T13:44:04;26.10;67.00
41457;DHT22;27197;51.752;5.220;2022-08-19T13:46:36;26.10;68.50
41457;DHT22;27197;51.752;5.220;2022-08-19T13:49:05;26.10;69.10
41457;DHT22;27197;51.752;5.220;2022-08-19T13:51:34;26.10;67.40
41457;DHT22;27197;51.752;5.220;2022-08-19T13:54:09;26.10;69.00
41457;DHT22;27197;51.752;5.220;2022-08-19T13:56:42;26.10;68.90
41457;DHT22;27197;51.752;5.220;2022-08-19T13:59:18;26.10;70.00
41457;DHT22;27197;51.752;5.220;2022-08-19T14:01:48;26.10;69.20
41457;DHT22;27197;51.752;5.220;2022-08-19T14:04:17;26.10;69.60
41457;DHT22;27197;51.752;5.220;2022-08-19T14:06:47;26.10;69.20
41457;DHT22;27197;51.752;5.220;2022-08-19T14:09:18;26.10;66.40
41457;DHT22;27197;51.752;5.220;2022-08-19T14:11:48;26.10;67.00
41457;DHT22;27197;51.752;5.220;2022-08-19T14:14:18;26.10;64.70
41457;DHT22;27197;51.752;5.220;2022-08-19T14:16:51;26.20;66.10
41457;DHT22;27197;51.752;5.220;2022-08-19T14:19:24;26.20;65.30
41457;DHT22;27197;51.752;5.220;2022-08-19T14:21:55;26.20;65.10
41457;DHT22;27197;51.752;5.220;2022-08-19T14:24:28;26.20;66.90
41457;DHT22;27197;51.752;5.220;2022-08-19T14:27:01;26.10;67.70
41457;DHT22;27197;51.752;5.220;2022-08-19T14:29:30;26.10;66.80
41457;DHT22;27197;51.752;5.220;2022-08-19T14:32:03;26.20;68.20
41457;DHT22;27197;51.752;5.220;2022-08-19T14:34:38;26.20;66.80
41457;DHT22;27197;51.752;5.220;2022-08-19T14:37:11;26.20;64.90
41457;DHT22;27197;51.752;5.220;2022-08-19T14:39:41;26.20;67.00
41457;DHT22;27197;51.752;5.220;2022-08-19T14:42:15;26.20;65.30
41457;DHT22;27197;51.752;5.220;2022-08-19T14:44:44;26.20;67.20
41457;DHT22;27197;51.752;5.220;2022-08-19T14:47:15;26.20;66.50
41457;DHT22;27197;51.752;5.220;2022-08-19T14:49:45;26.20;66.10
41457;DHT22;27197;51.752;5.220;2022-08-19T14:52:16;26.20;63.70
41457;DHT22;27197;51.752;5.220;2022-08-19T14:54:48;26.20;63.00
41457;DHT22;27197;51.752;5.220;2022-08-19T14:57:22;26.20;63.20
41457;DHT22;27197;51.752;5.220;2022-08-19T14:59:50;26.20;64.10
41457;DHT22;27197;51.752;5.220;2022-08-19T15:02:22;26.30;65.10
41457;DHT22;27197;51.752;5.220;2022-08-19T15:07:43;26.20;64.50
41457;DHT22;27197;51.752;5.220;2022-08-19T15:10:15;26.20;63.60
41457;DHT22;27197;51.752;5.220;2022-08-19T15:12:48;26.20;62.70
41457;DHT22;27197;51.752;5.220;2022-08-19T15:15:19;26.30;63.30
41457;DHT22;27197;51.752;5.220;2022-08-19T15:17:51;26.30;62.70
41457;DHT22;27197;51.752;5.220;2022-08-19T15:20:23;26.30;64.50
41457;DHT22;27197;51.752;5.220;2022-08-19T15:22:59;26.30;64.10
41457;DHT22;27197;51.752;5.220;2022-08-19T15:25:31;26.30;64.80
41457;DHT22;27197;51.752;5.220;2022-08-19T15:28:00;26.30;64.20
41457;DHT22;27197;51.752;5.220;2022-08-19T15:30:31;26.30;63.30
41457;DHT22;27197;51.752;5.220;2022-08-19T15:33:06;26.30;63.90
41457;DHT22;27197;51.752;5.220;2022-08-19T15:35:38;26.30;66.10
41457;DHT22;27197;51.752;5.220;2022-08-19T15:38:08;26.30;67.00
41457;DHT22;27197;51.752;5.220;2022-08-19T15:40:43;26.20;67.40
41457;DHT22;27197;51.752;5.220;2022-08-19T15:43:11;26.20;65.60
41457;DHT22;27197;51.752;5.220;2022-08-19T15:45:47;26.20;66.00
41457;DHT22;27197;51.752;5.220;2022-08-19T15:48:19;26.20;66.50
41457;DHT22;27197;51.752;5.220;2022-08-19T15:50:48;26.20;66.80
41457;DHT22;27197;51.752;5.220;2022-08-19T15:53:20;26.20;67.80
41457;DHT22;27197;51.752;5.220;2022-08-19T15:55:52;26.20;67.90
41457;DHT22;27197;51.752;5.220;2022-08-19T15:58:23;26.20;66.10
41457;DHT22;27197;51.752;5.220;2022-08-19T16:01:10;26.20;65.10
41457;DHT22;27197;51.752;5.220;2022-08-19T16:04:00;26.20;67.60
41457;DHT22;27197;51.752;5.220;2022-08-19T16:06:47;26.20;67.40
41457;DHT22;27197;51.752;5.220;2022-08-19T16:09:24;26.20;68.40
41457;DHT22;27197;51.752;5.220;2022-08-19T16:11:59;26.20;68.10